createdAt,value
2023-04-19T00:00:43.498Z,19.00
2023-04-19T00:03:12.113Z,31.00
2023-04-19T00:05:41.721Z,18.70
2023-04-19T00:08:10.174Z,24.10
2023-04-19T00:10:40.278Z,17.00
2023-04-19T00:13:08.658Z,15.90
2023-04-19T00:15:38.260Z,20.00
2023-04-19T00:18:06.860Z,29.80
2023-04-19T00:20:36.624Z,22.90
2023-04-19T00:23:04.991Z,18.10
2023-04-19T00:25:34.920Z,17.30
2023-04-19T00:28:04.213Z,17.10
2023-04-19T00:30:32.842Z,23.90
2023-04-19T00:33:01.551Z,21.50
2023-04-19T00:35:30.215Z,18.90
2023-04-19T00:37:58.742Z,20.20
2023-04-19T00:40:28.013Z,17.50
2023-04-19T00:42:56.285Z,23.80
2023-04-19T00:45:25.828Z,11.20
2023-04-19T00:47:54.342Z,17.20
2023-04-19T00:50:22.741Z,31.50
2023-04-19T00:52:51.206Z,16.50
2023-04-19T00:55:19.798Z,22.80
2023-04-19T00:57:48.344Z,27.00
2023-04-19T01:00:18.163Z,19.10
2023-04-19T01:02:48.014Z,19.90
2023-04-19T01:05:16.728Z,22.70
2023-04-19T01:07:45.221Z,24.10
2023-04-19T01:10:16.184Z,13.90
2023-04-19T01:12:44.536Z,15.30
2023-04-19T01:15:12.788Z,22.60
2023-04-19T01:17:42.557Z,16.90
2023-04-19T01:20:11.892Z,16.10
2023-04-19T01:22:40.492Z,23.30
2023-04-19T01:25:09.225Z,17.50
2023-04-19T01:27:37.683Z,22.20
2023-04-19T01:30:06.921Z,18.00
2023-04-19T01:32:35.958Z,15.70
2023-04-19T01:35:04.491Z,17.70
2023-04-19T01:37:35.857Z,15.90
2023-04-19T01:40:07.725Z,13.60
2023-04-19T01:42:37.393Z,14.70
2023-04-19T01:45:06.315Z,23.10
2023-04-19T01:47:34.699Z,12.90
2023-04-19T01:50:04.112Z,14.10
2023-04-19T01:52:32.547Z,18.00
2023-04-19T01:55:00.954Z,17.60
2023-04-19T01:57:29.740Z,21.90
2023-04-19T01:59:58.816Z,19.10
2023-04-19T02:02:27.770Z,24.40
2023-04-19T02:04:56.169Z,19.80
2023-04-19T02:07:24.455Z,13.00
2023-04-19T02:09:52.737Z,13.70
2023-04-19T02:12:21.536Z,16.60
2023-04-19T02:14:49.840Z,10.70
2023-04-19T02:17:18.337Z,21.40
2023-04-19T02:19:46.691Z,24.70
2023-04-19T02:22:15.048Z,24.30
2023-04-19T02:24:43.464Z,21.30
2023-04-19T02:27:11.998Z,19.50
2023-04-19T02:29:40.961Z,28.50
2023-04-19T02:32:09.538Z,17.00
2023-04-19T02:34:39.728Z,22.40
2023-04-19T02:37:09.964Z,17.90
2023-04-19T02:39:38.695Z,17.90
2023-04-19T02:42:07.054Z,23.20
2023-04-19T02:44:35.672Z,22.60
2023-04-19T02:47:04.038Z,31.50
2023-04-19T02:49:37.219Z,16.50
2023-04-19T02:52:05.896Z,25.80
2023-04-19T02:54:35.246Z,18.20
2023-04-19T02:57:03.536Z,23.40
2023-04-19T02:59:31.843Z,23.00
2023-04-19T03:02:01.954Z,31.10
2023-04-19T03:04:31.608Z,35.50
2023-04-19T03:07:00.263Z,39.00
2023-04-19T03:09:28.902Z,32.90
2023-04-19T03:11:57.213Z,34.20
2023-04-19T03:14:25.584Z,38.70
2023-04-19T03:16:54.195Z,49.80
2023-04-19T03:19:23.113Z,38.50
2023-04-19T03:21:52.906Z,41.40
2023-04-19T03:24:29.206Z,42.70
2023-04-19T03:26:57.913Z,49.70
2023-04-19T03:29:28.496Z,41.50
2023-04-19T03:32:01.688Z,49.40
2023-04-19T03:34:30.756Z,39.10
2023-04-19T03:36:59.109Z,35.30
2023-04-19T03:39:28.422Z,43.10
2023-04-19T03:42:01.699Z,46.80
2023-04-19T03:44:53.011Z,62.50
2023-04-19T03:47:21.601Z,56.70
2023-04-19T03:49:50.556Z,36.10
2023-04-19T03:52:19.064Z,45.80
2023-04-19T03:54:47.335Z,41.20
2023-04-19T03:57:26.477Z,57.40
2023-04-19T03:59:55.053Z,61.90
2023-04-19T04:02:23.537Z,47.20
2023-04-19T04:04:55.444Z,52.20
2023-04-19T04:07:24.772Z,55.50
2023-04-19T04:09:53.621Z,51.20
2023-04-19T04:12:22.251Z,56.60
2023-04-19T04:14:52.651Z,61.60
2023-04-19T04:17:22.664Z,42.80
2023-04-19T04:19:51.333Z,56.80
2023-04-19T04:22:20.535Z,54.20
2023-04-19T04:24:49.441Z,50.10
2023-04-19T04:27:28.338Z,61.10
2023-04-19T04:29:56.999Z,57.00
2023-04-19T04:32:25.628Z,67.60
2023-04-19T04:34:58.169Z,76.80
2023-04-19T04:37:37.345Z,79.00
2023-04-19T04:40:06.583Z,62.50
2023-04-19T04:42:35.855Z,55.30
2023-04-19T04:45:04.920Z,53.40
2023-04-19T04:47:34.812Z,69.80
2023-04-19T04:50:06.361Z,75.50
2023-04-19T04:52:35.768Z,80.80
2023-04-19T04:55:24.230Z,66.00
2023-04-19T04:57:52.540Z,78.70
2023-04-19T05:00:30.284Z,74.70
2023-04-19T05:03:03.240Z,62.10
2023-04-19T05:05:32.957Z,82.80
2023-04-19T05:08:01.606Z,61.60
2023-04-19T05:10:30.442Z,51.10
2023-04-19T05:12:59.583Z,64.40
2023-04-19T05:15:29.097Z,58.60
2023-04-19T05:17:57.641Z,77.80
2023-04-19T05:20:26.949Z,62.30
2023-04-19T05:23:03.645Z,65.80
2023-04-19T05:25:33.267Z,56.80
2023-04-19T05:28:03.637Z,62.50
2023-04-19T05:30:38.223Z,65.30
2023-04-19T05:33:07.319Z,86.20
2023-04-19T05:35:35.970Z,66.30
2023-04-19T05:38:04.468Z,56.80
2023-04-19T05:40:33.317Z,57.70
2023-04-19T05:43:01.649Z,68.50
2023-04-19T05:45:30.266Z,58.70
2023-04-19T05:47:58.545Z,64.80
2023-04-19T05:50:50.081Z,61.10
2023-04-19T05:53:34.620Z,48.30
2023-04-19T05:56:02.918Z,54.50
2023-04-19T05:58:32.014Z,60.00
2023-04-19T06:01:00.495Z,69.30
2023-04-19T06:03:31.432Z,70.80
2023-04-19T06:06:00.916Z,57.90
2023-04-19T06:08:29.482Z,48.80
2023-04-19T06:11:02.103Z,65.40
2023-04-19T06:13:36.564Z,51.00
2023-04-19T06:16:05.958Z,60.80
2023-04-19T06:18:34.708Z,53.70
2023-04-19T06:21:03.145Z,45.70
2023-04-19T06:23:31.624Z,43.70
2023-04-19T06:25:59.967Z,64.60
2023-04-19T06:28:29.408Z,43.90
2023-04-19T06:30:57.727Z,57.00
2023-04-19T06:33:26.087Z,71.90
2023-04-19T06:35:54.431Z,57.40
2023-04-19T06:38:22.800Z,48.10
2023-04-19T06:40:51.172Z,61.30
2023-04-19T06:43:19.522Z,44.40
2023-04-19T06:45:48.286Z,51.40
2023-04-19T06:48:16.737Z,56.30
2023-04-19T06:50:45.066Z,50.70
2023-04-19T06:53:13.396Z,50.10
2023-04-19T06:55:41.786Z,52.60
2023-04-19T06:58:11.135Z,41.20
2023-04-19T07:00:39.557Z,46.10
2023-04-19T07:03:08.035Z,46.90
2023-04-19T07:05:36.605Z,32.90
2023-04-19T07:08:05.023Z,47.00
2023-04-19T07:10:33.581Z,40.00
2023-04-19T07:13:02.020Z,36.40
2023-04-19T07:15:30.620Z,44.90
2023-04-19T07:17:59.109Z,52.30
2023-04-19T07:20:27.556Z,47.30
2023-04-19T07:22:55.946Z,45.30
2023-04-19T07:25:24.469Z,29.40
2023-04-19T07:27:54.342Z,34.60
2023-04-19T07:30:22.672Z,50.10
2023-04-19T07:32:52.241Z,36.00
2023-04-19T07:35:20.894Z,49.30
2023-04-19T07:37:49.361Z,36.00
2023-04-19T07:40:17.848Z,50.80
2023-04-19T07:42:46.140Z,62.20
2023-04-19T07:45:14.864Z,42.70
2023-04-19T07:47:43.291Z,40.10
2023-04-19T07:50:12.600Z,35.60
2023-04-19T07:52:41.041Z,45.80
2023-04-19T07:55:09.572Z,34.20
2023-04-19T07:57:38.177Z,30.00
2023-04-19T08:00:07.247Z,29.90
2023-04-19T08:02:45.266Z,36.10
2023-04-19T08:05:14.491Z,27.40
2023-04-19T08:07:43.754Z,38.20
2023-04-19T08:10:12.160Z,32.40
2023-04-19T08:12:50.378Z,37.20
2023-04-19T08:17:57.011Z,22.80
2023-04-19T08:20:25.568Z,46.20
2023-04-19T08:22:54.529Z,36.00
2023-04-19T08:25:26.975Z,32.90
2023-04-19T08:27:57.648Z,25.20
2023-04-19T08:30:26.691Z,40.10
2023-04-19T08:32:57.024Z,39.90
2023-04-19T08:35:25.817Z,28.50
2023-04-19T08:37:54.198Z,40.80
2023-04-19T08:40:22.546Z,33.80
2023-04-19T08:42:51.929Z,26.00
2023-04-19T08:45:27.063Z,30.40
2023-04-19T08:48:01.169Z,41.10
2023-04-19T08:50:34.528Z,37.40
2023-04-19T08:55:40.896Z,25.90
2023-04-19T08:58:26.313Z,32.70
2023-04-19T09:01:02.853Z,24.00
2023-04-19T09:03:40.913Z,30.00
2023-04-19T09:06:16.198Z,33.20
2023-04-19T09:08:44.733Z,30.10
2023-04-19T09:11:13.138Z,23.60
2023-04-19T09:13:44.255Z,24.40
2023-04-19T09:16:25.431Z,35.30
2023-04-19T09:19:23.531Z,26.70
2023-04-19T09:21:47.065Z,33.40
2023-04-19T09:24:15.881Z,32.50
2023-04-19T09:26:54.295Z,23.20
2023-04-19T09:29:22.687Z,37.20
2023-04-19T09:32:00.456Z,20.20
2023-04-19T09:34:30.791Z,27.70
2023-04-19T09:37:11.713Z,19.40
2023-04-19T09:39:43.421Z,33.30
2023-04-19T09:42:11.667Z,31.30
2023-04-19T09:47:32.893Z,28.10
2023-04-19T09:50:22.494Z,34.00
2023-04-19T09:52:55.746Z,37.40
2023-04-19T09:55:27.767Z,31.10
2023-04-19T09:57:56.937Z,27.60
2023-04-19T10:00:25.619Z,35.50
2023-04-19T10:02:58.021Z,33.60
2023-04-19T10:05:27.126Z,20.80
2023-04-19T10:08:00.088Z,31.70
2023-04-19T10:15:47.282Z,27.70
2023-04-19T10:18:20.692Z,29.20
2023-04-19T10:20:55.169Z,34.10
2023-04-19T10:23:23.412Z,32.30
2023-04-19T10:25:56.070Z,34.60
2023-04-19T10:28:24.458Z,30.60
2023-04-19T10:31:03.088Z,22.10
2023-04-19T10:33:35.814Z,44.90
2023-04-19T10:36:04.938Z,38.20
2023-04-19T10:38:37.465Z,30.40
2023-04-19T10:41:14.509Z,43.20
2023-04-19T10:43:48.621Z,37.30
2023-04-19T10:46:23.370Z,23.20
2023-04-19T10:48:57.414Z,29.80
2023-04-19T10:51:43.557Z,30.30
2023-04-19T10:54:34.498Z,33.10
2023-04-19T10:57:06.863Z,34.90
2023-04-19T10:59:35.664Z,36.00
2023-04-19T11:02:32.826Z,30.20
2023-04-19T11:05:01.731Z,30.40
2023-04-19T11:07:37.403Z,49.90
2023-04-19T11:10:06.896Z,51.00
2023-04-19T11:12:35.432Z,38.50
2023-04-19T11:15:04.100Z,43.70
2023-04-19T11:17:32.780Z,42.20
2023-04-19T11:20:09.656Z,30.00
2023-04-19T11:22:42.534Z,33.10
2023-04-19T11:25:16.760Z,38.20
2023-04-19T11:27:46.644Z,37.30
2023-04-19T11:30:17.038Z,29.20
2023-04-19T11:32:47.060Z,31.00
2023-04-19T11:35:15.951Z,27.90
2023-04-19T11:37:44.378Z,48.40
2023-04-19T11:40:16.943Z,38.90
2023-04-19T11:42:45.659Z,30.50
2023-04-19T11:45:34.564Z,37.50
2023-04-19T11:48:05.877Z,41.40
2023-04-19T11:50:39.216Z,46.60
2023-04-19T11:53:11.982Z,30.70
2023-04-19T11:55:46.165Z,23.40
2023-04-19T11:58:33.754Z,29.50
2023-04-19T12:01:11.339Z,26.20
2023-04-19T12:03:50.725Z,38.60
2023-04-19T12:06:27.193Z,29.30
2023-04-19T12:08:56.044Z,29.80
2023-04-19T12:11:26.749Z,39.90
2023-04-19T12:14:14.168Z,34.30
2023-04-19T12:16:45.081Z,31.20
2023-04-19T12:19:14.709Z,39.90
2023-04-19T12:21:43.412Z,26.00
2023-04-19T12:24:12.577Z,26.10
2023-04-19T12:26:57.173Z,34.60
2023-04-19T12:29:25.709Z,30.50
2023-04-19T12:31:54.088Z,26.00
2023-04-19T12:34:22.532Z,44.90
2023-04-19T12:36:50.845Z,27.90
2023-04-19T12:39:19.186Z,30.10
2023-04-19T12:41:50.183Z,36.20
2023-04-19T12:44:18.788Z,30.60
2023-04-19T12:46:47.270Z,28.70
2023-04-19T12:49:18.457Z,36.40
2023-04-19T12:51:47.806Z,25.60
2023-04-19T12:54:16.397Z,27.80
2023-04-19T12:56:44.750Z,27.70
2023-04-19T12:59:13.351Z,34.60
2023-04-19T13:01:41.726Z,32.30
2023-04-19T13:04:12.092Z,27.20
2023-04-19T13:06:41.129Z,31.30
2023-04-19T13:11:41.355Z,33.80
2023-04-19T13:14:09.727Z,35.40
2023-04-19T13:16:38.658Z,39.80
2023-04-19T13:19:07.141Z,31.70
2023-04-19T13:21:36.071Z,44.60
2023-04-19T13:24:04.594Z,34.60
2023-04-19T13:26:34.507Z,42.40
2023-04-19T13:29:03.115Z,34.10
2023-04-19T13:31:32.178Z,28.20
2023-04-19T13:34:01.646Z,47.90
2023-04-19T13:36:30.168Z,34.20
2023-04-19T13:38:58.779Z,35.70
2023-04-19T13:41:27.127Z,29.90
2023-04-19T13:43:55.418Z,34.30
2023-04-19T13:46:23.890Z,33.40
2023-04-19T13:48:52.234Z,37.00
2023-04-19T13:51:20.633Z,34.30
2023-04-19T13:53:48.900Z,24.20
2023-04-19T13:56:17.315Z,38.20
2023-04-19T13:58:45.601Z,35.50
2023-04-19T14:01:13.960Z,32.00
2023-04-19T14:03:42.500Z,24.10
2023-04-19T14:06:11.319Z,28.70
2023-04-19T14:08:40.166Z,36.70
2023-04-19T14:11:08.402Z,29.30
2023-04-19T14:13:37.054Z,30.20
2023-04-19T14:16:05.558Z,51.40
2023-04-19T14:18:34.816Z,29.50
2023-04-19T14:21:03.235Z,31.30
2023-04-19T14:23:31.748Z,33.10
2023-04-19T14:26:00.362Z,27.50
2023-04-19T14:28:28.717Z,29.80
2023-04-19T14:30:57.067Z,29.90
2023-04-19T14:33:26.939Z,30.30
2023-04-19T14:35:55.380Z,30.40
2023-04-19T14:38:23.829Z,36.10
2023-04-19T14:40:52.116Z,26.80
2023-04-19T14:43:20.479Z,32.60
2023-04-19T14:45:49.975Z,29.20
2023-04-19T14:48:21.481Z,35.10
2023-04-19T14:50:50.530Z,28.40
2023-04-19T14:53:18.854Z,23.30
2023-04-19T14:55:47.179Z,31.10
2023-04-19T14:58:15.925Z,24.00
2023-04-19T15:00:44.618Z,26.30
2023-04-19T15:03:13.536Z,27.10
2023-04-19T15:05:42.050Z,38.60
2023-04-19T15:08:23.369Z,25.10
2023-04-19T15:10:58.150Z,28.30
2023-04-19T15:13:26.956Z,37.30
2023-04-19T15:15:55.363Z,29.30
2023-04-19T15:18:23.732Z,31.40
2023-04-19T15:20:52.059Z,36.50
2023-04-19T15:23:23.892Z,30.60
2023-04-19T15:25:52.705Z,35.20
2023-04-19T15:28:21.174Z,31.20
2023-04-19T15:31:02.915Z,27.00
2023-04-19T15:33:31.689Z,31.00
2023-04-19T15:36:00.120Z,32.10
2023-04-19T15:38:29.721Z,27.20
2023-04-19T15:40:58.481Z,34.60
2023-04-19T15:43:26.824Z,34.30
2023-04-19T15:45:55.095Z,36.40
2023-04-19T15:48:23.951Z,29.50
2023-04-19T15:50:52.204Z,30.40
2023-04-19T15:53:20.803Z,33.20
2023-04-19T15:55:49.385Z,36.00
2023-04-19T15:58:17.942Z,38.80
2023-04-19T16:00:46.287Z,26.90
2023-04-19T16:03:14.697Z,36.60
2023-04-19T16:05:43.193Z,41.40
2023-04-19T16:08:12.043Z,31.00
2023-04-19T16:10:40.457Z,39.50
2023-04-19T16:13:08.850Z,27.20
2023-04-19T16:15:37.070Z,34.10
2023-04-19T16:18:05.573Z,30.80
2023-04-19T16:20:34.055Z,40.10
2023-04-19T16:23:05.791Z,34.30
2023-04-19T16:25:34.360Z,41.30
2023-04-19T16:28:03.221Z,34.40
2023-04-19T16:30:31.627Z,36.60
2023-04-19T16:33:00.181Z,33.20
2023-04-19T16:35:29.002Z,36.30
2023-04-19T16:37:57.865Z,47.30
2023-04-19T16:40:26.527Z,28.90
2023-04-19T16:42:54.930Z,40.60
2023-04-19T16:45:23.265Z,41.00
2023-04-19T16:47:52.246Z,33.80
2023-04-19T16:50:20.816Z,34.30
2023-04-19T16:52:49.287Z,35.90
2023-04-19T16:55:17.786Z,38.10
2023-04-19T16:57:46.037Z,30.10
2023-04-19T17:00:14.996Z,44.80
2023-04-19T17:02:43.640Z,30.30
2023-04-19T17:05:13.940Z,31.00
2023-04-19T17:07:43.788Z,30.40
2023-04-19T17:10:12.290Z,32.50
2023-04-19T17:12:40.863Z,32.20
2023-04-19T17:15:09.481Z,35.50
2023-04-19T17:17:53.700Z,28.60
2023-04-19T17:20:22.439Z,44.40
2023-04-19T17:22:50.703Z,32.00
2023-04-19T17:25:20.975Z,31.60
2023-04-19T17:27:51.068Z,45.40
2023-04-19T17:30:19.513Z,31.50
2023-04-19T17:32:48.025Z,35.20
2023-04-19T17:35:16.404Z,31.80
2023-04-19T17:37:44.872Z,38.20
2023-04-19T17:40:13.283Z,30.20
2023-04-19T17:42:41.573Z,41.10
2023-04-19T17:45:11.317Z,35.70
2023-04-19T17:47:40.015Z,31.00
2023-04-19T17:50:13.078Z,32.60
2023-04-19T17:52:41.566Z,41.00
2023-04-19T17:55:10.009Z,35.40
2023-04-19T17:57:38.412Z,34.00
2023-04-19T18:00:08.156Z,31.80
2023-04-19T18:02:40.871Z,38.70
2023-04-19T18:05:09.490Z,40.80
2023-04-19T18:07:38.037Z,44.00
2023-04-19T18:10:06.902Z,45.00
2023-04-19T18:12:36.796Z,43.20
2023-04-19T18:15:06.784Z,43.50
2023-04-19T18:17:35.986Z,41.00
2023-04-19T18:20:07.114Z,44.90
2023-04-19T18:22:35.579Z,49.40
2023-04-19T18:25:03.996Z,51.60
2023-04-19T18:27:32.827Z,55.80
2023-04-19T18:30:05.186Z,58.40
2023-04-19T18:32:35.721Z,48.10
2023-04-19T18:35:04.858Z,43.60
2023-04-19T18:37:33.339Z,47.50
2023-04-19T18:40:01.996Z,49.80
2023-04-19T18:42:30.619Z,49.70
2023-04-19T18:44:58.986Z,37.30
2023-04-19T18:47:27.524Z,45.20
2023-04-19T18:50:03.761Z,42.60
2023-04-19T18:52:37.370Z,43.40
2023-04-19T18:55:06.644Z,56.70
2023-04-19T18:57:36.125Z,36.90
2023-04-19T19:00:06.644Z,44.60
2023-04-19T19:02:37.692Z,53.10
2023-04-19T19:05:09.021Z,40.40
2023-04-19T19:07:38.498Z,44.00
2023-04-19T19:10:16.929Z,48.00
2023-04-19T19:12:49.605Z,50.40
2023-04-19T19:15:18.641Z,51.80
2023-04-19T19:17:49.612Z,71.30
2023-04-19T19:20:19.616Z,49.60
2023-04-19T19:22:48.541Z,55.20
2023-04-19T19:25:16.977Z,50.90
2023-04-19T19:28:05.737Z,59.00
2023-04-19T19:30:35.879Z,48.60
2023-04-19T19:33:05.134Z,55.50
2023-04-19T19:35:33.789Z,42.30
2023-04-19T19:38:02.171Z,50.60
2023-04-19T19:40:32.429Z,57.00
2023-04-19T19:43:01.585Z,56.60
2023-04-19T19:45:33.276Z,54.60
2023-04-19T19:48:01.896Z,40.20
2023-04-19T19:53:01.765Z,48.90
2023-04-19T19:55:30.539Z,48.10
2023-04-19T20:03:02.259Z,61.60
2023-04-19T20:05:31.014Z,71.10
2023-04-19T20:08:10.130Z,54.60
2023-04-19T20:10:39.580Z,82.40
2023-04-19T20:13:08.203Z,72.10
2023-04-19T20:15:36.909Z,74.70
2023-04-19T20:18:05.894Z,80.70
2023-04-19T20:20:35.936Z,83.60
2023-04-19T20:23:04.676Z,53.90
2023-04-19T20:25:33.098Z,58.30
2023-04-19T20:28:02.087Z,53.60
2023-04-19T20:30:31.105Z,53.90
2023-04-19T20:32:59.568Z,44.10
2023-04-19T20:35:28.585Z,44.40
2023-04-19T20:38:02.942Z,48.80
2023-04-19T20:40:32.370Z,37.60
2023-04-19T20:43:01.586Z,39.00
2023-04-19T20:45:30.201Z,31.00
2023-04-19T20:47:58.814Z,32.20
2023-04-19T20:50:27.062Z,37.40
2023-04-19T20:52:56.814Z,45.00
2023-04-19T20:55:25.281Z,41.40
2023-04-19T20:57:53.705Z,43.70
2023-04-19T21:00:22.220Z,43.50
2023-04-19T21:02:50.678Z,39.70
2023-04-19T21:05:19.184Z,34.20
2023-04-19T21:07:47.606Z,41.90
2023-04-19T21:10:17.403Z,37.40
2023-04-19T21:12:46.015Z,52.90
2023-04-19T21:15:14.691Z,43.70
2023-04-19T21:17:43.028Z,47.10
2023-04-19T21:20:15.982Z,51.30
2023-04-19T21:22:45.370Z,42.60
2023-04-19T21:25:13.947Z,56.40
2023-04-19T21:27:42.486Z,55.90
2023-04-19T21:30:11.422Z,50.10
2023-04-19T21:32:43.010Z,45.30
2023-04-19T21:35:11.557Z,45.10
2023-04-19T21:37:40.092Z,47.90
2023-04-19T21:40:08.738Z,47.70
2023-04-19T21:42:37.297Z,41.60
2023-04-19T21:45:06.277Z,43.10
2023-04-19T21:47:35.650Z,35.60
2023-04-19T21:50:04.571Z,30.60
2023-04-19T21:52:33.155Z,35.90
2023-04-19T21:55:01.475Z,40.70
2023-04-19T21:57:31.138Z,40.00
2023-04-19T21:59:59.542Z,48.90
2023-04-19T22:02:28.025Z,31.00
2023-04-19T22:04:56.824Z,42.90
2023-04-19T22:07:25.245Z,40.30
2023-04-19T22:09:54.477Z,44.80
2023-04-19T22:12:23.538Z,38.60
2023-04-19T22:14:52.098Z,35.60
2023-04-19T22:17:20.746Z,49.30
2023-04-19T22:19:49.268Z,37.30
2023-04-19T22:22:17.518Z,47.90
2023-04-19T22:24:56.708Z,48.10
2023-04-19T22:27:25.959Z,40.40
2023-04-19T22:29:54.248Z,50.60
2023-04-19T22:32:22.722Z,50.70
2023-04-19T22:34:51.497Z,52.10
2023-04-19T22:37:19.750Z,54.80
2023-04-19T22:39:48.119Z,41.90
2023-04-19T22:42:16.520Z,47.00
2023-04-19T22:44:44.982Z,55.70
2023-04-19T22:47:14.634Z,45.00
2023-04-19T22:49:43.511Z,40.60
2023-04-19T22:52:12.173Z,44.90
2023-04-19T22:54:40.532Z,42.10
2023-04-19T22:57:09.051Z,43.60
2023-04-19T22:59:37.523Z,54.40
2023-04-19T23:02:06.117Z,51.80
2023-04-19T23:04:35.472Z,60.10
2023-04-19T23:07:04.323Z,45.30
2023-04-19T23:09:33.657Z,50.10
2023-04-19T23:12:04.115Z,50.90
2023-04-19T23:14:33.092Z,46.60
2023-04-19T23:17:03.013Z,47.40
2023-04-19T23:19:31.704Z,55.10
2023-04-19T23:22:00.031Z,50.50
2023-04-19T23:24:28.291Z,50.70
2023-04-19T23:26:56.960Z,53.10
2023-04-19T23:29:25.187Z,44.10
2023-04-19T23:31:53.484Z,53.60
2023-04-19T23:34:21.860Z,48.00
2023-04-19T23:36:50.198Z,51.30
2023-04-19T23:39:19.015Z,57.20
2023-04-19T23:41:47.521Z,52.50
2023-04-19T23:44:16.093Z,51.60
2023-04-19T23:46:44.640Z,55.00
2023-04-19T23:49:13.009Z,64.30
2023-04-19T23:51:41.317Z,61.60
2023-04-19T23:54:09.589Z,52.00
2023-04-19T23:56:38.751Z,61.20
2023-04-19T23:59:07.271Z,50.20
